createdAt,value
2019-02-10T00:00:22.000Z,99334
2019-02-10T00:02:22.000Z,99333
2019-02-10T00:03:22.000Z,99331
2019-02-10T00:05:22.000Z,99326
2019-02-10T00:06:22.000Z,99323
2019-02-10T00:08:22.000Z,99315
2019-02-10T00:10:22.000Z,99319
2019-02-10T00:12:22.000Z,99317
2019-02-10T00:14:22.000Z,99314
2019-02-10T00:16:22.000Z,99315
2019-02-10T00:17:22.000Z,99304
2019-02-10T00:19:22.000Z,99300
2019-02-10T00:20:22.000Z,99295
2019-02-10T00:22:22.000Z,99294
2019-02-10T00:23:22.000Z,99285
2019-02-10T00:25:22.000Z,99279
2019-02-10T00:26:22.000Z,99274
2019-02-10T00:27:22.000Z,99274
2019-02-10T00:29:07.000Z,99271
2019-02-10T00:30:22.000Z,99268
2019-02-10T00:32:22.000Z,99269
2019-02-10T00:33:22.000Z,99262
2019-02-10T00:35:22.000Z,99262
2019-02-10T00:36:22.000Z,99262
2019-02-10T00:38:22.000Z,99253
2019-02-10T00:39:22.000Z,99250
2019-02-10T00:41:22.000Z,99246
2019-02-10T00:43:22.000Z,99236
2019-02-10T00:45:22.000Z,99238
2019-02-10T00:47:22.000Z,99235
2019-02-10T00:48:22.000Z,99230
2019-02-10T00:50:22.000Z,99247
2019-02-10T00:51:22.000Z,99238
2019-02-10T00:53:07.000Z,99229
2019-02-10T00:54:22.000Z,99232
2019-02-10T00:55:22.000Z,99225
2019-02-10T00:57:22.000Z,99224
2019-02-10T00:58:22.000Z,99219
2019-02-10T01:00:22.000Z,99202
2019-02-10T01:02:22.000Z,99196
2019-02-10T01:04:22.000Z,99201
2019-02-10T01:05:22.000Z,99193
2019-02-10T01:06:22.000Z,99194
2019-02-10T01:08:07.000Z,99197
2019-02-10T01:09:22.000Z,99197
2019-02-10T01:11:22.000Z,99194
2019-02-10T01:12:22.000Z,99191
2019-02-10T01:14:22.000Z,99187
2019-02-10T01:16:22.000Z,99180
2019-02-10T01:17:22.000Z,99182
2019-02-10T01:19:22.000Z,99167
2019-02-10T01:21:22.000Z,99157
2019-02-10T01:23:22.000Z,99153
2019-02-10T01:24:52.000Z,99149
2019-02-10T01:26:22.000Z,99142
2019-02-10T01:28:22.000Z,99139
2019-02-10T01:29:22.000Z,99138
2019-02-10T01:31:22.000Z,99138
2019-02-10T01:33:22.000Z,99131
2019-02-10T01:34:22.000Z,99135
2019-02-10T01:36:22.000Z,99129
2019-02-10T01:38:22.000Z,99123
2019-02-10T01:39:52.000Z,99116
2019-02-10T02:23:02.000Z,99022
2019-02-10T02:24:33.000Z,99015
2019-02-10T02:25:48.000Z,99011
2019-02-10T02:27:48.000Z,98997
2019-02-10T02:28:48.000Z,98991
2019-02-10T02:30:33.000Z,98983
2019-02-10T02:31:48.000Z,98977
2019-02-10T02:33:48.000Z,98982
2019-02-10T02:34:48.000Z,98980
2019-02-10T02:36:48.000Z,98974
2019-02-10T02:37:48.000Z,98964
2019-02-10T02:38:48.000Z,98960
2019-02-10T02:40:48.000Z,98956
2019-02-10T02:42:33.000Z,98946
2019-02-10T02:43:48.000Z,98937
2019-02-10T02:45:48.000Z,98931
2019-02-10T02:47:48.000Z,98929
2019-02-10T02:48:48.000Z,98929
2019-02-10T02:50:48.000Z,98926
2019-02-10T02:52:48.000Z,98919
2019-02-10T02:54:33.000Z,98914
2019-02-10T02:55:48.000Z,98907
2019-02-10T02:56:48.000Z,98908
2019-02-10T02:58:48.000Z,98900
2019-02-10T03:00:48.000Z,98894
2019-02-10T03:02:33.000Z,98884
2019-02-10T03:03:48.000Z,98880
2019-02-10T03:04:48.000Z,98872
2019-02-10T03:06:48.000Z,98858
2019-02-10T03:08:49.000Z,98874
2019-02-10T03:10:49.000Z,98873
2019-02-10T03:11:49.000Z,98868
2019-02-10T03:13:49.000Z,98861
2019-02-10T03:14:49.000Z,98849
2019-02-10T03:16:49.000Z,98846
2019-02-10T03:17:49.000Z,98836
2019-02-10T03:19:49.000Z,98821
2019-02-10T03:20:49.000Z,98829
2019-02-10T03:22:49.000Z,98822
2019-02-10T03:24:49.000Z,98814
2019-02-10T03:25:49.000Z,98810
2019-02-10T03:27:49.000Z,98798
2019-02-10T03:29:34.000Z,98797
2019-02-10T03:30:34.000Z,98788
2019-02-10T03:31:49.000Z,98789
2019-02-10T03:33:49.000Z,98787
2019-02-10T03:35:49.000Z,98774
2019-02-10T03:37:19.000Z,98757
2019-02-10T03:38:49.000Z,98763
2019-02-10T03:39:49.000Z,98759
2019-02-10T03:40:49.000Z,98757
2019-02-10T03:41:49.000Z,98757
2019-02-10T03:43:49.000Z,98747
2019-02-10T03:44:49.000Z,98739
2019-02-10T03:45:49.000Z,98736
2019-02-10T03:47:19.000Z,98732
2019-02-10T03:48:49.000Z,98723
2019-02-10T03:49:49.000Z,98717
2019-02-10T03:51:49.000Z,98711
2019-02-10T03:52:49.000Z,98715
2019-02-10T03:54:49.000Z,98703
2019-02-10T03:55:49.000Z,98702
2019-02-10T03:57:49.000Z,98701
2019-02-10T03:59:34.000Z,98697
2019-02-10T04:00:49.000Z,98687
2019-02-10T04:01:49.000Z,98681
2019-02-10T04:03:49.000Z,98679
2019-02-10T04:04:49.000Z,98676
2019-02-10T04:05:49.000Z,98671
2019-02-10T04:06:49.000Z,98678
2019-02-10T04:08:49.000Z,98667
2019-02-10T04:09:49.000Z,98660
2019-02-10T04:11:49.000Z,98653
2019-02-10T04:12:49.000Z,98651
2019-02-10T04:14:49.000Z,98645
2019-02-10T04:16:33.000Z,98644
2019-02-10T04:17:49.000Z,98642
2019-02-10T04:19:18.000Z,98644
2019-02-10T04:20:49.000Z,98635
2019-02-10T04:21:49.000Z,98635
2019-02-10T04:23:49.000Z,98623
2019-02-10T04:24:49.000Z,98621
2019-02-10T04:26:49.000Z,98608
2019-02-10T04:27:49.000Z,98610
2019-02-10T04:29:49.000Z,98605
2019-02-10T04:30:49.000Z,98595
2019-02-10T04:32:49.000Z,98594
2019-02-10T04:34:49.000Z,98591
2019-02-10T04:35:49.000Z,98587
2019-02-10T04:37:49.000Z,98575
2019-02-10T04:39:49.000Z,98574
2019-02-10T04:41:49.000Z,98553
2019-02-10T04:42:49.000Z,98546
2019-02-10T04:44:49.000Z,98541
2019-02-10T04:46:49.000Z,98526
2019-02-10T04:48:49.000Z,98522
2019-02-10T04:49:49.000Z,98500
2019-02-10T04:51:49.000Z,98501
2019-02-10T04:52:49.000Z,98498
2019-02-10T04:54:49.000Z,98495
2019-02-10T04:56:33.000Z,98481
2019-02-10T04:57:49.000Z,98479
2019-02-10T04:59:33.000Z,98502
2019-02-10T05:00:49.000Z,98486
2019-02-10T05:01:49.000Z,98470
2019-02-10T05:03:49.000Z,98457
2019-02-10T05:04:49.000Z,98449
2019-02-10T05:06:49.000Z,98462
2019-02-10T05:08:49.000Z,98460
2019-02-10T05:10:49.000Z,98453
2019-02-10T05:11:49.000Z,98442
2019-02-10T05:13:49.000Z,98431
2019-02-10T05:15:33.000Z,98419
2019-02-10T05:16:48.000Z,98410
2019-02-10T05:18:48.000Z,98398
2019-02-10T05:20:48.000Z,98372
2019-02-10T05:22:48.000Z,98371
2019-02-10T05:24:48.000Z,98366
2019-02-10T05:26:48.000Z,98351
2019-02-10T05:27:48.000Z,98354
2019-02-10T05:28:48.000Z,98350
2019-02-10T05:30:48.000Z,98343
2019-02-10T05:31:48.000Z,98336
2019-02-10T05:32:48.000Z,98337
2019-02-10T05:34:48.000Z,98312
2019-02-10T05:36:48.000Z,98308
2019-02-10T05:37:48.000Z,98320
2019-02-10T05:39:48.000Z,98301
2019-02-10T05:41:48.000Z,98297
2019-02-10T05:42:48.000Z,98288
2019-02-10T05:43:48.000Z,98292
2019-02-10T05:45:48.000Z,98286
2019-02-10T05:47:18.000Z,98266
2019-02-10T05:48:48.000Z,98264
2019-02-10T05:50:18.000Z,98256
2019-02-10T05:51:48.000Z,98266
2019-02-10T05:53:48.000Z,98253
2019-02-10T05:54:48.000Z,98246
2019-02-10T05:55:48.000Z,98244
2019-02-10T05:56:48.000Z,98243
2019-02-10T05:58:48.000Z,98223
2019-02-10T06:00:48.000Z,98229
2019-02-10T06:02:48.000Z,98215
2019-02-10T06:04:33.000Z,98205
2019-02-10T06:05:48.000Z,98216
2019-02-10T06:07:48.000Z,98201
2019-02-10T06:09:48.000Z,98197
2019-02-10T06:11:48.000Z,98191
2019-02-10T06:13:48.000Z,98188
2019-02-10T06:14:48.000Z,98180
2019-02-10T06:16:33.000Z,98173
2019-02-10T06:17:48.000Z,98170
2019-02-10T06:18:48.000Z,98170
2019-02-10T06:20:49.000Z,98168
2019-02-10T06:21:49.000Z,98160
2019-02-10T06:23:49.000Z,98171
2019-02-10T06:25:49.000Z,98161
2019-02-10T06:26:49.000Z,98164
2019-02-10T06:28:49.000Z,98156
2019-02-10T06:30:34.000Z,98159
2019-02-10T06:31:49.000Z,98154
2019-02-10T06:32:49.000Z,98139
2019-02-10T06:34:49.000Z,98157
2019-02-10T06:35:49.000Z,98152
2019-02-10T06:37:49.000Z,98136
2019-02-10T06:39:49.000Z,98126
2019-02-10T06:41:49.000Z,98119
2019-02-10T06:43:49.000Z,98123
2019-02-10T06:44:49.000Z,98114
2019-02-10T06:46:49.000Z,98106
2019-02-10T06:48:49.000Z,98109
2019-02-10T06:50:34.000Z,98100
2019-02-10T06:51:49.000Z,98104
2019-02-10T06:52:49.000Z,98090
2019-02-10T06:54:49.000Z,98090
2019-02-10T06:55:49.000Z,98079
2019-02-10T06:57:49.000Z,98079
2019-02-10T06:59:49.000Z,98067
2019-02-10T07:00:49.000Z,98069
2019-02-10T07:02:49.000Z,98063
2019-02-10T07:04:49.000Z,98056
2019-02-10T07:05:49.000Z,98050
2019-02-10T07:07:49.000Z,98054
2019-02-10T07:08:49.000Z,98047
2019-02-10T07:10:34.000Z,98046
2019-02-10T07:11:49.000Z,98042
2019-02-10T07:13:49.000Z,98038
2019-02-10T07:14:49.000Z,98036
2019-02-10T07:16:49.000Z,98034
2019-02-10T07:17:49.000Z,98009
2019-02-10T07:19:49.000Z,98013
2019-02-10T07:20:49.000Z,98010
2019-02-10T07:22:49.000Z,98010
2019-02-10T07:24:48.000Z,97995
2019-02-10T07:25:48.000Z,97989
2019-02-10T07:27:48.000Z,97981
2019-02-10T07:29:48.000Z,97972
2019-02-10T07:31:18.000Z,97973
2019-02-10T07:32:48.000Z,97965
2019-02-10T07:34:33.000Z,97970
2019-02-10T07:35:48.000Z,97961
2019-02-10T07:37:48.000Z,97962
2019-02-10T07:39:48.000Z,97930
2019-02-10T07:40:48.000Z,97935
2019-02-10T07:42:33.000Z,97940
2019-02-10T07:43:33.000Z,97945
2019-02-10T07:44:48.000Z,97927
2019-02-10T07:46:48.000Z,97923
2019-02-10T07:48:48.000Z,97920
2019-02-10T07:49:48.000Z,97910
2019-02-10T07:51:33.000Z,97911
2019-02-10T07:52:48.000Z,97899
2019-02-10T07:54:33.000Z,97903
2019-02-10T07:56:48.000Z,97901
2019-02-10T07:57:48.000Z,97886
2019-02-10T07:59:48.000Z,97900
2019-02-10T08:00:48.000Z,97884
2019-02-10T08:02:48.000Z,97884
2019-02-10T08:04:48.000Z,97882
2019-02-10T08:05:48.000Z,97873
2019-02-10T08:07:48.000Z,97881
2019-02-10T08:08:48.000Z,97880
2019-02-10T08:09:48.000Z,97887
2019-02-10T08:11:33.000Z,97878
2019-02-10T08:12:48.000Z,97872
2019-02-10T08:13:48.000Z,97870
2019-02-10T08:15:48.000Z,97886
2019-02-10T08:17:48.000Z,97873
2019-02-10T08:18:48.000Z,97875
2019-02-10T08:20:48.000Z,97875
2019-02-10T08:22:33.000Z,97865
2019-02-10T08:23:48.000Z,97872
2019-02-10T08:25:48.000Z,97852
2019-02-10T08:27:48.000Z,97869
2019-02-10T08:28:49.000Z,97850
2019-02-10T08:30:49.000Z,97842
2019-02-10T08:32:49.000Z,97859
2019-02-10T08:34:49.000Z,97863
2019-02-10T08:36:34.000Z,97850
2019-02-10T08:37:49.000Z,97847
2019-02-10T08:38:49.000Z,97854
2019-02-10T08:40:49.000Z,97845
2019-02-10T08:42:49.000Z,97847
2019-02-10T08:44:49.000Z,97838
2019-02-10T08:45:49.000Z,97835
2019-02-10T08:47:34.000Z,97832
2019-02-10T08:48:49.000Z,97822
2019-02-10T08:49:49.000Z,97826
2019-02-10T08:51:49.000Z,97812
2019-02-10T08:53:49.000Z,97822
2019-02-10T08:55:34.000Z,97805
2019-02-10T08:56:49.000Z,97813
2019-02-10T08:57:49.000Z,97820
2019-02-10T08:59:49.000Z,97811
2019-02-10T09:00:49.000Z,97809
2019-02-10T09:02:34.000Z,97806
2019-02-10T09:04:49.000Z,97796
2019-02-10T09:05:49.000Z,97806
2019-02-10T09:07:49.000Z,97799
2019-02-10T09:08:49.000Z,97800
2019-02-10T09:10:49.000Z,97796
2019-02-10T09:12:49.000Z,97799
2019-02-10T09:14:49.000Z,97790
2019-02-10T09:16:49.000Z,97788
2019-02-10T09:18:19.000Z,97793
2019-02-10T09:19:19.000Z,97791
2019-02-10T09:20:49.000Z,97790
2019-02-10T09:21:49.000Z,97793
2019-02-10T09:23:49.000Z,97788
2019-02-10T09:24:49.000Z,97787
2019-02-10T09:26:49.000Z,97792
2019-02-10T09:28:49.000Z,97785
2019-02-10T09:30:34.000Z,97790
2019-02-10T09:31:49.000Z,97785
2019-02-10T09:33:48.000Z,97784
2019-02-10T09:34:48.000Z,97777
2019-02-10T09:36:48.000Z,97783
2019-02-10T09:38:48.000Z,97786
2019-02-10T09:40:48.000Z,97786
2019-02-10T09:42:18.000Z,97789
2019-02-10T09:43:48.000Z,97786
2019-02-10T09:45:33.000Z,97789
2019-02-10T09:46:48.000Z,97786
2019-02-10T09:48:48.000Z,97789
2019-02-10T09:49:48.000Z,97792
2019-02-10T09:51:48.000Z,97791
2019-02-10T09:53:48.000Z,97794
2019-02-10T09:55:48.000Z,97791
2019-02-10T09:56:48.000Z,97791
2019-02-10T09:58:48.000Z,97789
2019-02-10T10:00:48.000Z,97769
2019-02-10T10:01:48.000Z,97782
2019-02-10T10:03:48.000Z,97778
2019-02-10T10:05:48.000Z,97772
2019-02-10T10:07:48.000Z,97780
2019-02-10T10:09:18.000Z,97778
2019-02-10T10:10:48.000Z,97782
2019-02-10T10:11:48.000Z,97789
2019-02-10T10:12:48.000Z,97785
2019-02-10T10:13:48.000Z,97782
2019-02-10T10:15:48.000Z,97782
2019-02-10T10:16:48.000Z,97779
2019-02-10T10:17:48.000Z,97787
2019-02-10T10:19:48.000Z,97789
2019-02-10T10:20:48.000Z,97788
2019-02-10T10:22:48.000Z,97782
2019-02-10T10:24:48.000Z,97781
2019-02-10T10:26:48.000Z,97766
2019-02-10T10:28:48.000Z,97779
2019-02-10T10:29:48.000Z,97776
2019-02-10T10:31:48.000Z,97772
2019-02-10T10:33:33.000Z,97772
2019-02-10T10:34:48.000Z,97767
2019-02-10T10:36:49.000Z,97765
2019-02-10T10:38:33.000Z,97767
2019-02-10T10:40:18.000Z,97758
2019-02-10T10:41:49.000Z,97763
2019-02-10T10:42:49.000Z,97756
2019-02-10T10:43:49.000Z,97753
2019-02-10T10:45:49.000Z,97747
2019-02-10T10:47:33.000Z,97752
2019-02-10T10:48:49.000Z,97753
2019-02-10T10:50:49.000Z,97754
2019-02-10T10:52:49.000Z,97748
2019-02-10T10:54:33.000Z,97744
2019-02-10T10:55:48.000Z,97749
2019-02-10T10:56:49.000Z,97754
2019-02-10T10:58:33.000Z,97754
2019-02-10T10:59:49.000Z,97752
2019-02-10T11:00:49.000Z,97755
2019-02-10T11:02:33.000Z,97736
2019-02-10T11:03:49.000Z,97738
2019-02-10T11:05:18.000Z,97738
2019-02-10T11:06:49.000Z,97729
2019-02-10T11:08:33.000Z,97733
2019-02-10T11:09:34.000Z,97727
2019-02-10T11:11:49.000Z,97719
2019-02-10T11:13:49.000Z,97714
2019-02-10T11:14:49.000Z,97720
2019-02-10T11:16:49.000Z,97708
2019-02-10T11:18:49.000Z,97697
2019-02-10T11:20:33.000Z,97706
2019-02-10T11:21:49.000Z,97701
2019-02-10T11:23:49.000Z,97699
2019-02-10T11:25:49.000Z,97701
2019-02-10T11:27:33.000Z,97693
2019-02-10T11:28:49.000Z,97692
2019-02-10T11:30:49.000Z,97686
2019-02-10T11:31:49.000Z,97692
2019-02-10T11:33:49.000Z,97679
2019-02-10T11:35:48.000Z,97682
2019-02-10T11:36:49.000Z,97687
2019-02-10T11:38:48.000Z,97677
2019-02-10T11:39:49.000Z,97678
2019-02-10T11:40:49.000Z,97668
2019-02-10T11:42:49.000Z,97672
2019-02-10T11:44:49.000Z,97663
2019-02-10T11:46:49.000Z,97659
2019-02-10T11:48:49.000Z,97667
2019-02-10T11:49:49.000Z,97660
2019-02-10T11:50:49.000Z,97662
2019-02-10T11:51:49.000Z,97657
2019-02-10T11:53:49.000Z,97660
2019-02-10T11:55:49.000Z,97665
2019-02-10T11:56:49.000Z,97657
2019-02-10T11:58:49.000Z,97662
2019-02-10T12:00:49.000Z,97662
2019-02-10T12:02:34.000Z,97669
2019-02-10T12:04:49.000Z,97666
2019-02-10T12:06:49.000Z,97662
2019-02-10T12:08:34.000Z,97669
2019-02-10T12:10:49.000Z,97657
2019-02-10T12:12:34.000Z,97662
2019-02-10T12:13:49.000Z,97659
2019-02-10T12:15:49.000Z,97655
2019-02-10T12:17:49.000Z,97662
2019-02-10T12:19:19.000Z,97647
2019-02-10T12:20:49.000Z,97658
2019-02-10T12:22:49.000Z,97654
2019-02-10T12:24:49.000Z,97649
2019-02-10T12:25:49.000Z,97657
2019-02-10T12:27:49.000Z,97656
2019-02-10T12:29:49.000Z,97667
2019-02-10T12:31:49.000Z,97661
2019-02-10T12:32:49.000Z,97661
2019-02-10T12:34:49.000Z,97660
2019-02-10T12:36:49.000Z,97650
2019-02-10T12:38:34.000Z,97660
2019-02-10T12:39:49.000Z,97655
2019-02-10T12:41:34.000Z,97656
2019-02-10T12:42:49.000Z,97654
2019-02-10T12:44:49.000Z,97656
2019-02-10T12:46:49.000Z,97664
2019-02-10T12:47:49.000Z,97666
2019-02-10T12:49:34.000Z,97674
2019-02-10T12:50:49.000Z,97685
2019-02-10T12:52:49.000Z,97691
2019-02-10T12:54:49.000Z,97689
2019-02-10T12:56:34.000Z,97697
2019-02-10T12:57:49.000Z,97696
2019-02-10T12:58:49.000Z,97700
2019-02-10T13:00:34.000Z,97702
2019-02-10T13:01:49.000Z,97700
2019-02-10T13:02:49.000Z,97705
2019-02-10T13:03:49.000Z,97712
2019-02-10T13:05:19.000Z,97700
2019-02-10T13:06:49.000Z,97706
2019-02-10T13:07:49.000Z,97707
2019-02-10T13:09:49.000Z,97700
2019-02-10T13:11:34.000Z,97702
2019-02-10T13:12:49.000Z,97712
2019-02-10T13:14:34.000Z,97708
2019-02-10T13:15:49.000Z,97705
2019-02-10T13:17:34.000Z,97707
2019-02-10T13:18:49.000Z,97704
2019-02-10T13:19:49.000Z,97708
2019-02-10T13:21:49.000Z,97719
2019-02-10T13:22:49.000Z,97719
2019-02-10T13:24:34.000Z,97720
2019-02-10T13:25:49.000Z,97714
2019-02-10T13:27:49.000Z,97711
2019-02-10T13:29:49.000Z,97718
2019-02-10T13:30:49.000Z,97710
2019-02-10T13:32:49.000Z,97715
2019-02-10T13:34:49.000Z,97710
2019-02-10T13:36:49.000Z,97712
2019-02-10T13:38:49.000Z,97715
2019-02-10T13:40:34.000Z,97709
2019-02-10T13:41:49.000Z,97700
2019-02-10T13:42:49.000Z,97703
2019-02-10T13:43:49.000Z,97704
2019-02-10T13:45:49.000Z,97712
2019-02-10T13:47:49.000Z,97711
2019-02-10T13:49:48.000Z,97697
2019-02-10T13:51:48.000Z,97705
2019-02-10T13:53:48.000Z,97700
2019-02-10T13:55:48.000Z,97699
2019-02-10T13:56:48.000Z,97705
2019-02-10T13:58:48.000Z,97705
2019-02-10T13:59:48.000Z,97698
2019-02-10T14:01:48.000Z,97706
2019-02-10T14:03:48.000Z,97716
2019-02-10T14:05:48.000Z,97716
2019-02-10T14:06:48.000Z,97721
2019-02-10T14:08:48.000Z,97714
2019-02-10T14:10:18.000Z,97707
2019-02-10T14:11:48.000Z,97718
2019-02-10T14:12:48.000Z,97716
2019-02-10T14:14:48.000Z,97721
2019-02-10T14:16:48.000Z,97721
2019-02-10T14:18:48.000Z,97713
2019-02-10T14:20:48.000Z,97712
2019-02-10T14:22:48.000Z,97720
2019-02-10T14:23:48.000Z,97717
2019-02-10T14:25:48.000Z,97729
2019-02-10T14:27:48.000Z,97732
2019-02-10T14:28:48.000Z,97734
2019-02-10T14:29:48.000Z,97728
2019-02-10T14:31:48.000Z,97729
2019-02-10T14:33:33.000Z,97727
2019-02-10T14:34:48.000Z,97730
2019-02-10T14:35:48.000Z,97736
2019-02-10T14:37:48.000Z,97735
2019-02-10T14:39:33.000Z,97731
2019-02-10T14:40:33.000Z,97723
2019-02-10T14:41:48.000Z,97724
2019-02-10T14:43:33.000Z,97732
2019-02-10T14:44:48.000Z,97731
2019-02-10T14:46:48.000Z,97735
2019-02-10T14:48:48.000Z,97730
2019-02-10T14:50:48.000Z,97734
2019-02-10T14:52:48.000Z,97730
2019-02-10T14:54:48.000Z,97735
2019-02-10T14:55:48.000Z,97725
2019-02-10T14:57:48.000Z,97720
2019-02-10T14:59:48.000Z,97724
2019-02-10T15:01:48.000Z,97721
2019-02-10T15:02:48.000Z,97728
2019-02-10T15:03:48.000Z,97715
2019-02-10T15:05:48.000Z,97728
2019-02-10T15:07:18.000Z,97719
2019-02-10T15:50:30.000Z,97760
2019-02-10T15:52:00.000Z,97763
2019-02-10T15:53:16.000Z,97757
2019-02-10T15:54:16.000Z,97760
2019-02-10T15:55:16.000Z,97764
2019-02-10T15:57:16.000Z,97763
2019-02-10T15:59:16.000Z,97772
2019-02-10T16:01:16.000Z,97770
2019-02-10T16:03:00.000Z,97770
2019-02-10T16:04:16.000Z,97769
2019-02-10T16:05:16.000Z,97765
2019-02-10T16:07:15.000Z,97756
2019-02-10T16:08:16.000Z,97755
2019-02-10T16:10:00.000Z,97763
2019-02-10T16:11:16.000Z,97753
2019-02-10T16:12:16.000Z,97769
2019-02-10T16:14:16.000Z,97772
2019-02-10T16:15:16.000Z,97786
2019-02-10T16:17:16.000Z,97784
2019-02-10T16:19:00.000Z,97779
2019-02-10T16:21:15.000Z,97779
2019-02-10T16:22:16.000Z,97775
2019-02-10T16:24:00.000Z,97777
2019-02-10T16:25:16.000Z,97776
2019-02-10T16:27:16.000Z,97770
2019-02-10T16:28:16.000Z,97780
2019-02-10T16:29:16.000Z,97782
2019-02-10T16:31:16.000Z,97782
2019-02-10T16:32:46.000Z,97781
2019-02-10T16:34:15.000Z,97790
2019-02-10T16:35:16.000Z,97789
2019-02-10T16:37:16.000Z,97796
2019-02-10T16:39:16.000Z,97812
2019-02-10T16:40:16.000Z,97800
2019-02-10T16:42:00.000Z,97797
2019-02-10T16:43:16.000Z,97806
2019-02-10T16:45:16.000Z,97818
2019-02-10T16:47:16.000Z,97820
2019-02-10T16:48:16.000Z,97820
2019-02-10T16:50:16.000Z,97817
2019-02-10T16:52:16.000Z,97827
2019-02-10T16:53:16.000Z,97829
2019-02-10T16:54:16.000Z,97829
2019-02-10T16:56:00.000Z,97838
2019-02-10T16:57:16.000Z,97842
2019-02-10T16:59:16.000Z,97843
2019-02-10T17:00:16.000Z,97841
2019-02-10T17:01:16.000Z,97837
2019-02-10T17:03:16.000Z,97854
2019-02-10T17:04:16.000Z,97842
2019-02-10T17:06:16.000Z,97847
2019-02-10T17:07:16.000Z,97857
2019-02-10T17:09:16.000Z,97856
2019-02-10T17:11:16.000Z,97865
2019-02-10T17:13:16.000Z,97865
2019-02-10T17:15:00.000Z,97873
2019-02-10T17:16:01.000Z,97867
2019-02-10T17:18:16.000Z,97876
2019-02-10T17:19:16.000Z,97883
2019-02-10T17:21:16.000Z,97889
2019-02-10T17:23:16.000Z,97907
2019-02-10T17:24:16.000Z,97905
2019-02-10T17:26:16.000Z,97911
2019-02-10T17:28:16.000Z,97917
2019-02-10T17:30:16.000Z,97924
2019-02-10T17:32:16.000Z,97924
2019-02-10T17:33:16.000Z,97917
2019-02-10T17:35:16.000Z,97922
2019-02-10T17:36:45.000Z,97932
2019-02-10T17:38:16.000Z,97930
2019-02-10T17:40:16.000Z,97928
2019-02-10T17:42:16.000Z,97934
2019-02-10T17:43:45.000Z,97943
2019-02-10T17:45:16.000Z,97938
2019-02-10T17:46:16.000Z,97942
2019-02-10T17:47:16.000Z,97947
2019-02-10T17:49:16.000Z,97948
2019-02-10T17:50:16.000Z,97961
2019-02-10T17:52:00.000Z,97949
2019-02-10T17:53:16.000Z,97956
2019-02-10T17:55:16.000Z,97958
2019-02-10T17:56:16.000Z,97953
2019-02-10T17:57:46.000Z,97958
2019-02-10T18:00:16.000Z,97962
2019-02-10T18:01:16.000Z,97965
2019-02-10T18:03:16.000Z,97974
2019-02-10T18:05:01.000Z,97969
2019-02-10T18:06:16.000Z,97972
2019-02-10T18:07:16.000Z,97977
2019-02-10T18:09:01.000Z,97984
2019-02-10T18:10:16.000Z,97988
2019-02-10T18:11:16.000Z,97978
2019-02-10T18:13:16.000Z,97996
2019-02-10T18:14:16.000Z,98002
2019-02-10T18:16:16.000Z,98008
2019-02-10T18:17:16.000Z,98013
2019-02-10T18:19:16.000Z,98020
2019-02-10T18:21:16.000Z,98018
2019-02-10T18:23:16.000Z,98014
2019-02-10T18:24:16.000Z,98022
2019-02-10T18:25:16.000Z,98026
2019-02-10T18:27:16.000Z,98026
2019-02-10T18:29:16.000Z,98051
2019-02-10T18:31:16.000Z,98048
2019-02-10T18:33:16.000Z,98043
2019-02-10T18:35:16.000Z,98056
2019-02-10T18:37:16.000Z,98067
2019-02-10T18:38:16.000Z,98067
2019-02-10T18:40:16.000Z,98067
2019-02-10T18:42:16.000Z,98077
2019-02-10T18:44:16.000Z,98086
2019-02-10T18:46:01.000Z,98084
2019-02-10T18:48:16.000Z,98094
2019-02-10T18:50:16.000Z,98098
2019-02-10T18:52:16.000Z,98100
2019-02-10T18:53:16.000Z,98103
2019-02-10T18:54:16.000Z,98102
2019-02-10T18:56:16.000Z,98108
2019-02-10T18:58:16.000Z,98111
2019-02-10T19:00:16.000Z,98109
2019-02-10T19:01:16.000Z,98115
2019-02-10T19:02:16.000Z,98109
2019-02-10T19:03:16.000Z,98109
2019-02-10T19:05:01.000Z,98124
2019-02-10T19:06:16.000Z,98113
2019-02-10T19:07:16.000Z,98124
2019-02-10T19:08:46.000Z,98126
2019-02-10T19:10:16.000Z,98122
2019-02-10T19:11:46.000Z,98128
2019-02-10T19:13:16.000Z,98131
2019-02-10T19:14:16.000Z,98132
2019-02-10T19:16:16.000Z,98140
2019-02-10T19:17:16.000Z,98141
2019-02-10T19:19:16.000Z,98149
2019-02-10T19:20:16.000Z,98147
2019-02-10T19:22:16.000Z,98161
2019-02-10T19:23:16.000Z,98158
2019-02-10T19:25:16.000Z,98165
2019-02-10T19:26:16.000Z,98166
2019-02-10T19:27:16.000Z,98177
2019-02-10T19:29:16.000Z,98180
2019-02-10T19:31:16.000Z,98183
2019-02-10T19:33:01.000Z,98200
2019-02-10T19:34:16.000Z,98206
2019-02-10T19:36:16.000Z,98218
2019-02-10T19:38:16.000Z,98216
2019-02-10T19:39:16.000Z,98226
2019-02-10T19:41:16.000Z,98225
2019-02-10T19:42:16.000Z,98230
2019-02-10T19:44:16.000Z,98233
2019-02-10T19:45:16.000Z,98236
2019-02-10T19:47:16.000Z,98246
2019-02-10T19:48:16.000Z,98247
2019-02-10T19:50:16.000Z,98254
2019-02-10T19:52:01.000Z,98258
2019-02-10T19:54:16.000Z,98260
2019-02-10T19:55:16.000Z,98265
2019-02-10T19:57:16.000Z,98268
2019-02-10T19:59:16.000Z,98275
2019-02-10T20:01:16.000Z,98283
2019-02-10T20:03:16.000Z,98281
2019-02-10T20:04:16.000Z,98283
2019-02-10T20:06:16.000Z,98294
2019-02-10T20:08:16.000Z,98301
2019-02-10T20:09:16.000Z,98305
2019-02-10T20:11:16.000Z,98310
2019-02-10T20:12:46.000Z,98322
2019-02-10T20:14:16.000Z,98322
2019-02-10T20:15:16.000Z,98325
2019-02-10T20:17:16.000Z,98330
2019-02-10T20:18:16.000Z,98329
2019-02-10T20:19:16.000Z,98333
2019-02-10T20:21:16.000Z,98335
2019-02-10T20:23:16.000Z,98341
2019-02-10T20:25:01.000Z,98351
2019-02-10T20:26:16.000Z,98358
2019-02-10T20:27:16.000Z,98364
2019-02-10T20:29:01.000Z,98369
2019-02-10T20:30:01.000Z,98369
2019-02-10T20:32:16.000Z,98373
2019-02-10T20:34:01.000Z,98378
2019-02-10T20:35:16.000Z,98386
2019-02-10T20:37:16.000Z,98389
2019-02-10T20:39:01.000Z,98398
2019-02-10T20:40:16.000Z,98399
2019-02-10T20:41:46.000Z,98394
2019-02-10T20:43:16.000Z,98401
2019-02-10T20:44:16.000Z,98411
2019-02-10T20:45:16.000Z,98411
2019-02-10T20:47:16.000Z,98416
2019-02-10T20:49:16.000Z,98419
2019-02-10T20:51:01.000Z,98431
2019-02-10T20:53:16.000Z,98441
2019-02-10T20:54:16.000Z,98436
2019-02-10T20:56:16.000Z,98446
2019-02-10T20:58:16.000Z,98452
2019-02-10T21:00:01.000Z,98455
2019-02-10T21:02:16.000Z,98461
2019-02-10T21:04:01.000Z,98472
2019-02-10T21:05:16.000Z,98472
2019-02-10T21:07:16.000Z,98477
2019-02-10T21:08:16.000Z,98486
2019-02-10T21:10:16.000Z,98489
2019-02-10T21:11:16.000Z,98490
2019-02-10T21:13:16.000Z,98499
2019-02-10T21:15:16.000Z,98509
2019-02-10T21:17:16.000Z,98516
2019-02-10T21:18:16.000Z,98518
2019-02-10T21:19:16.000Z,98520
2019-02-10T21:21:01.000Z,98527
2019-02-10T21:22:16.000Z,98529
2019-02-10T21:24:16.000Z,98541
2019-02-10T21:25:46.000Z,98548
2019-02-10T22:08:58.000Z,98684
2019-02-10T22:10:44.000Z,98684
2019-02-10T22:11:44.000Z,98695
2019-02-10T22:13:44.000Z,98692
2019-02-10T22:15:44.000Z,98698
2019-02-10T22:16:44.000Z,98702
2019-02-10T22:17:44.000Z,98708
2019-02-10T22:19:44.000Z,98714
2019-02-10T22:21:44.000Z,98724
2019-02-10T22:23:44.000Z,98731
2019-02-10T22:25:44.000Z,98740
2019-02-10T22:27:44.000Z,98744
2019-02-10T22:28:44.000Z,98756
2019-02-10T22:29:44.000Z,98751
2019-02-10T22:31:14.000Z,98767
2019-02-10T22:32:44.000Z,98756